createdAt,value
2023-03-26T00:01:54.444Z,7.86
2023-03-26T00:04:25.579Z,7.71
2023-03-26T00:06:54.243Z,7.59
2023-03-26T00:09:22.528Z,7.68
2023-03-26T00:11:50.380Z,7.58
2023-03-26T00:14:18.328Z,7.54
2023-03-26T00:16:47.674Z,7.41
2023-03-26T00:19:16.062Z,7.21
2023-03-26T00:21:43.885Z,7.30
2023-03-26T00:24:17.606Z,7.32
2023-03-26T00:26:48.763Z,7.06
2023-03-26T00:29:18.772Z,7.18
2023-03-26T00:31:47.315Z,7.07
2023-03-26T00:34:18.629Z,7.09
2023-03-26T00:36:47.511Z,7.07
2023-03-26T00:39:17.992Z,6.96
2023-03-26T00:41:45.942Z,6.79
2023-03-26T00:44:14.195Z,6.75
2023-03-26T00:46:42.869Z,6.73
2023-03-26T00:49:14.930Z,6.58
2023-03-26T00:51:43.501Z,6.55
2023-03-26T00:54:12.001Z,6.46
2023-03-26T00:56:39.964Z,6.34
2023-03-26T00:59:09.392Z,6.26
2023-03-26T01:01:37.873Z,6.20
2023-03-26T01:04:44.959Z,6.13
2023-03-26T01:07:22.800Z,6.05
2023-03-26T01:09:51.792Z,5.98
2023-03-26T01:12:23.133Z,5.90
2023-03-26T01:14:53.312Z,5.90
2023-03-26T01:17:23.045Z,5.86
2023-03-26T01:20:15.222Z,5.84
2023-03-26T01:22:49.523Z,5.96
2023-03-26T01:25:17.732Z,5.98
2023-03-26T01:27:55.880Z,5.96
2023-03-26T01:30:42.817Z,5.85
2023-03-26T01:33:22.344Z,5.85
2023-03-26T01:36:01.099Z,5.82
2023-03-26T01:38:48.845Z,5.78
2023-03-26T01:41:52.125Z,5.68
2023-03-26T01:44:59.837Z,5.66
2023-03-26T01:47:29.093Z,5.60
2023-03-26T01:49:57.315Z,5.69
2023-03-26T01:52:26.412Z,5.62
2023-03-26T01:54:56.116Z,5.55
2023-03-26T01:57:37.908Z,5.57
2023-03-26T02:00:19.526Z,5.54
2023-03-26T02:02:56.876Z,5.64
2023-03-26T02:05:47.755Z,5.67
2023-03-26T02:08:24.350Z,5.70
2023-03-26T02:10:58.959Z,5.65
2023-03-26T02:13:27.985Z,5.61
2023-03-26T02:16:02.071Z,5.55
2023-03-26T02:18:36.880Z,5.49
2023-03-26T02:21:20.410Z,5.53
2023-03-26T02:23:57.865Z,5.47
2023-03-26T02:26:26.243Z,5.48
2023-03-26T02:28:54.870Z,5.38
2023-03-26T02:31:26.540Z,5.48
2023-03-26T02:33:55.750Z,5.44
2023-03-26T02:36:30.536Z,5.47
2023-03-26T02:39:00.460Z,5.48
2023-03-26T02:41:29.012Z,5.23
2023-03-26T02:43:57.182Z,5.45
2023-03-26T02:46:25.993Z,5.40
2023-03-26T02:48:54.735Z,5.37
2023-03-26T02:51:23.024Z,5.31
2023-03-26T02:53:53.853Z,5.25
2023-03-26T02:56:23.021Z,4.90
2023-03-26T02:58:52.248Z,4.80
2023-03-26T03:01:20.233Z,4.77
2023-03-26T03:03:48.745Z,4.65
2023-03-26T03:06:19.011Z,4.12
2023-03-26T03:08:47.446Z,4.46
2023-03-26T03:11:24.991Z,4.44
2023-03-26T03:13:54.262Z,4.28
2023-03-26T03:16:22.279Z,4.21
2023-03-26T03:18:54.883Z,4.19
2023-03-26T03:21:25.425Z,4.16
2023-03-26T03:24:00.254Z,3.97
2023-03-26T03:26:30.175Z,4.05
2023-03-26T03:28:58.907Z,3.93
2023-03-26T03:31:27.483Z,3.96
2023-03-26T03:33:56.803Z,4.02
2023-03-26T03:36:28.119Z,3.97
2023-03-26T03:39:02.316Z,3.56
2023-03-26T03:41:30.444Z,3.71
2023-03-26T03:43:59.977Z,3.77
2023-03-26T03:46:28.589Z,3.88
2023-03-26T03:48:56.522Z,3.87
2023-03-26T03:51:25.451Z,3.91
2023-03-26T03:53:56.005Z,3.85
2023-03-26T03:56:26.300Z,3.97
2023-03-26T03:58:58.459Z,3.73
2023-03-26T04:01:30.904Z,3.76
2023-03-26T04:03:59.696Z,3.97
2023-03-26T04:06:30.356Z,3.88
2023-03-26T04:08:58.309Z,4.01
2023-03-26T04:11:26.814Z,4.03
2023-03-26T04:13:56.597Z,3.94
2023-03-26T04:16:25.703Z,4.12
2023-03-26T04:18:54.094Z,4.12
2023-03-26T04:21:22.790Z,3.83
2023-03-26T04:23:50.716Z,4.11
2023-03-26T04:26:20.574Z,4.15
2023-03-26T04:28:55.512Z,4.26
2023-03-26T04:31:29.562Z,4.11
2023-03-26T04:34:05.902Z,4.35
2023-03-26T04:36:35.706Z,4.04
2023-03-26T04:39:05.352Z,3.81
2023-03-26T04:41:36.194Z,3.65
2023-03-26T04:44:04.448Z,3.68
2023-03-26T04:46:33.815Z,3.39
2023-03-26T04:49:02.505Z,3.23
2023-03-26T04:51:42.150Z,3.42
2023-03-26T04:54:20.278Z,3.33
2023-03-26T04:56:54.446Z,3.48
2023-03-26T04:59:30.185Z,3.35
2023-03-26T05:02:00.218Z,3.21
2023-03-26T05:04:34.153Z,3.24
2023-03-26T05:07:03.234Z,3.19
2023-03-26T05:09:32.150Z,3.29
2023-03-26T05:12:02.279Z,3.35
2023-03-26T05:14:32.512Z,3.48
2023-03-26T05:17:06.079Z,3.63
2023-03-26T05:19:34.035Z,3.67
2023-03-26T05:22:03.312Z,3.87
2023-03-26T05:24:33.085Z,3.97
2023-03-26T05:27:01.333Z,4.07
2023-03-26T05:29:29.655Z,4.06
2023-03-26T05:31:57.500Z,4.09
2023-03-26T05:34:27.141Z,4.07
2023-03-26T05:36:55.526Z,4.12
2023-03-26T05:39:26.581Z,4.69
2023-03-26T05:41:56.380Z,5.04
2023-03-26T05:44:25.693Z,5.20
2023-03-26T05:46:53.643Z,5.52
2023-03-26T05:49:22.371Z,5.69
2023-03-26T05:51:50.592Z,6.09
2023-03-26T05:54:18.938Z,6.27
2023-03-26T05:56:59.264Z,6.71
2023-03-26T05:59:32.330Z,6.90
2023-03-26T06:02:02.375Z,7.31
2023-03-26T06:04:32.244Z,7.46
2023-03-26T06:07:02.107Z,7.39
2023-03-26T06:09:30.429Z,7.69
2023-03-26T06:11:58.871Z,8.09
2023-03-26T06:14:27.270Z,7.64
2023-03-26T06:16:57.654Z,7.95
2023-03-26T06:19:25.911Z,7.86
2023-03-26T06:21:54.388Z,7.73
2023-03-26T06:24:22.766Z,7.61
2023-03-26T06:26:51.436Z,7.97
2023-03-26T06:29:19.900Z,8.12
2023-03-26T06:31:48.543Z,8.10
2023-03-26T06:34:19.360Z,8.08
2023-03-26T06:36:48.876Z,7.88
2023-03-26T06:39:17.244Z,7.68
2023-03-26T06:41:46.216Z,7.77
2023-03-26T06:44:15.018Z,8.09
2023-03-26T06:46:45.460Z,7.95
2023-03-26T06:49:14.209Z,8.46
2023-03-26T06:51:43.628Z,8.38
2023-03-26T06:54:12.387Z,9.00
2023-03-26T06:56:42.228Z,9.01
2023-03-26T06:59:11.850Z,9.17
2023-03-26T07:01:52.175Z,9.27
2023-03-26T07:04:35.827Z,9.37
2023-03-26T07:07:28.201Z,9.75
2023-03-26T07:09:58.902Z,10.16
2023-03-26T07:12:27.978Z,10.53
2023-03-26T07:14:57.453Z,10.53
2023-03-26T07:17:27.422Z,10.62
2023-03-26T07:19:55.593Z,10.69
2023-03-26T07:22:25.328Z,10.77
2023-03-26T07:24:56.382Z,10.92
2023-03-26T07:27:54.120Z,11.00
2023-03-26T07:33:53.867Z,10.98
2023-03-26T07:36:25.012Z,11.19
2023-03-26T07:39:40.684Z,11.29
2023-03-26T07:43:01.779Z,11.62
2023-03-26T07:45:41.408Z,11.34
2023-03-26T07:48:18.935Z,11.45
2023-03-26T07:50:48.555Z,11.42
2023-03-26T07:53:20.032Z,11.49
2023-03-26T08:18:44.844Z,13.15
2023-03-26T08:21:22.046Z,13.46
2023-03-26T08:23:59.269Z,13.16
2023-03-26T08:26:39.507Z,13.56
2023-03-26T08:29:29.081Z,14.28
2023-03-26T08:31:58.129Z,15.38
2023-03-26T08:34:26.135Z,15.53
2023-03-26T08:36:53.990Z,16.04
2023-03-26T08:39:22.670Z,15.31
2023-03-26T08:42:09.024Z,14.81
2023-03-26T08:45:08.887Z,14.56
2023-03-26T08:47:59.401Z,14.41
2023-03-26T08:51:14.704Z,17.36
2023-03-26T08:54:33.364Z,16.94
2023-03-26T08:57:04.141Z,16.41
2023-03-26T08:59:53.623Z,16.34
2023-03-26T09:02:46.739Z,16.50
2023-03-26T09:05:55.077Z,16.77
2023-03-26T09:11:56.684Z,16.00
2023-03-26T09:14:25.320Z,16.03
2023-03-26T09:16:59.305Z,15.74
2023-03-26T09:19:49.488Z,15.13
2023-03-26T09:22:34.635Z,14.86
2023-03-26T09:25:31.442Z,15.63
2023-03-26T09:28:05.646Z,17.54
2023-03-26T09:31:08.312Z,18.61
2023-03-26T09:33:56.447Z,19.25
2023-03-26T09:36:57.424Z,19.87
2023-03-26T09:39:33.520Z,20.05
2023-03-26T09:42:04.030Z,18.96
2023-03-26T09:44:34.910Z,17.84
2023-03-26T09:47:21.758Z,16.96
2023-03-26T09:50:17.817Z,16.37
2023-03-26T09:53:07.214Z,16.25
2023-03-26T09:56:05.882Z,16.13
2023-03-26T09:58:46.255Z,15.81
2023-03-26T10:01:35.832Z,15.77
2023-03-26T10:04:07.283Z,16.04
2023-03-26T10:06:39.677Z,15.83
2023-03-26T10:09:20.746Z,15.64
2023-03-26T10:12:07.190Z,15.70
2023-03-26T10:14:46.576Z,15.93
2023-03-26T10:17:33.898Z,15.98
2023-03-26T10:20:28.916Z,16.15
2023-03-26T10:23:34.361Z,16.37
2023-03-26T10:26:22.568Z,16.28
2023-03-26T10:29:04.758Z,16.31
2023-03-26T10:31:39.406Z,16.41
2023-03-26T10:34:50.098Z,16.47
2023-03-26T10:37:36.771Z,16.51
2023-03-26T10:40:43.076Z,16.74
2023-03-26T10:43:24.281Z,16.65
2023-03-26T10:46:14.633Z,17.05
2023-03-26T10:49:24.487Z,17.00
2023-03-26T10:51:59.077Z,16.78
2023-03-26T10:54:44.575Z,16.83
2023-03-26T10:57:24.373Z,16.76
2023-03-26T11:00:00.473Z,17.07
2023-03-26T11:02:44.977Z,16.64
2023-03-26T11:05:59.036Z,16.99
2023-03-26T11:08:31.688Z,17.18
2023-03-26T11:11:22.016Z,17.08
2023-03-26T11:14:08.531Z,17.20
2023-03-26T11:16:58.295Z,17.21
2023-03-26T11:19:38.894Z,17.19
2023-03-26T11:22:24.852Z,17.20
2023-03-26T11:25:06.951Z,17.38
2023-03-26T11:27:48.499Z,17.46
2023-03-26T11:30:35.803Z,17.51
2023-03-26T11:33:08.150Z,17.46
2023-03-26T11:35:40.792Z,17.43
2023-03-26T11:38:18.952Z,17.60
2023-03-26T11:40:51.154Z,17.57
2023-03-26T11:43:28.075Z,17.63
2023-03-26T11:45:59.511Z,17.66
2023-03-26T11:48:46.321Z,17.68
2023-03-26T11:51:25.514Z,17.60
2023-03-26T11:53:54.641Z,17.36
2023-03-26T11:56:26.084Z,17.50
2023-03-26T11:59:55.823Z,17.72
2023-03-26T12:02:38.546Z,17.73
2023-03-26T12:05:16.276Z,17.79
2023-03-26T12:07:52.651Z,17.13
2023-03-26T12:10:35.254Z,17.41
2023-03-26T12:13:26.769Z,17.55
2023-03-26T12:16:01.316Z,17.34
2023-03-26T12:18:29.370Z,17.11
2023-03-26T12:21:13.239Z,17.40
2023-03-26T12:23:58.479Z,17.68
2023-03-26T12:26:46.494Z,17.77
2023-03-26T12:29:17.954Z,17.75
2023-03-26T12:31:52.371Z,17.79
2023-03-26T12:34:22.553Z,17.90
2023-03-26T12:37:01.099Z,18.13
2023-03-26T12:40:10.521Z,17.72
2023-03-26T12:44:50.754Z,17.45
2023-03-26T12:45:23.245Z,17.63
2023-03-26T12:48:03.551Z,17.72
2023-03-26T12:51:09.215Z,17.84
2023-03-26T12:53:49.001Z,17.68
2023-03-26T12:56:40.252Z,17.38
2023-03-26T12:59:41.745Z,17.59
2023-03-26T13:02:09.666Z,17.42
2023-03-26T13:04:58.640Z,17.24
2023-03-26T13:07:48.172Z,17.16
2023-03-26T13:10:35.243Z,17.01
2023-03-26T13:13:38.612Z,16.77
2023-03-26T13:16:22.423Z,16.57
2023-03-26T13:18:54.288Z,16.45
2023-03-26T13:21:39.736Z,16.41
2023-03-26T13:24:34.801Z,16.70
2023-03-26T13:27:14.923Z,16.78
2023-03-26T13:29:57.768Z,17.02
2023-03-26T13:32:50.714Z,16.94
2023-03-26T13:35:28.649Z,16.76
2023-03-26T13:38:07.648Z,17.02
2023-03-26T13:40:56.013Z,16.95
2023-03-26T13:43:30.518Z,16.96
2023-03-26T13:45:58.680Z,17.02
2023-03-26T13:48:34.803Z,16.96
2023-03-26T13:51:16.176Z,16.88
2023-03-26T13:53:53.248Z,16.90
2023-03-26T13:56:29.672Z,16.91
2023-03-26T13:59:09.017Z,17.02
2023-03-26T14:01:43.909Z,16.85
2023-03-26T14:04:43.951Z,16.91
2023-03-26T14:07:15.855Z,16.90
2023-03-26T14:09:48.335Z,16.83
2023-03-26T14:12:32.542Z,16.94
2023-03-26T14:15:06.770Z,16.62
2023-03-26T14:18:00.620Z,16.62
2023-03-26T14:20:51.664Z,16.57
2023-03-26T14:23:37.840Z,16.66
2023-03-26T14:26:43.621Z,16.66
2023-03-26T14:29:39.121Z,16.75
2023-03-26T14:32:43.010Z,16.56
2023-03-26T14:35:35.804Z,16.40
2023-03-26T14:38:52.358Z,16.23
2023-03-26T14:41:33.646Z,16.09
2023-03-26T14:44:10.652Z,15.90
2023-03-26T14:46:41.402Z,15.90
2023-03-26T14:49:51.920Z,15.82
2023-03-26T14:52:41.958Z,15.81
2023-03-26T14:55:28.251Z,15.82
2023-03-26T14:58:31.321Z,15.85
2023-03-26T15:01:20.811Z,15.77
2023-03-26T15:04:13.419Z,15.80
2023-03-26T15:06:56.754Z,15.79
2023-03-26T15:09:43.321Z,15.72
2023-03-26T15:12:37.189Z,15.62
2023-03-26T15:15:29.667Z,15.65
2023-03-26T15:18:19.906Z,15.61
2023-03-26T15:21:15.602Z,15.54
2023-03-26T15:23:55.952Z,15.65
2023-03-26T15:26:30.758Z,15.63
2023-03-26T15:29:56.576Z,15.67
2023-03-26T15:32:33.614Z,15.59
2023-03-26T15:35:23.908Z,15.52
2023-03-26T15:38:23.898Z,15.64
2023-03-26T15:40:52.078Z,15.63
2023-03-26T15:43:26.705Z,15.52
2023-03-26T15:46:19.586Z,15.59
2023-03-26T15:49:03.855Z,15.43
2023-03-26T16:04:14.716Z,14.75
2023-03-26T16:06:57.329Z,14.60
2023-03-26T16:09:47.521Z,14.51
2023-03-26T16:12:16.348Z,14.58
2023-03-26T16:15:04.077Z,14.36
2023-03-26T16:18:04.131Z,14.46
2023-03-26T16:20:50.811Z,14.51
2023-03-26T16:23:24.617Z,14.33
2023-03-26T16:25:57.195Z,14.52
2023-03-26T16:28:48.238Z,14.22
2023-03-26T16:31:36.387Z,14.17
2023-03-26T16:34:09.284Z,14.01
2023-03-26T16:36:43.097Z,13.88
2023-03-26T16:39:50.033Z,13.73
2023-03-26T16:42:32.008Z,13.55
2023-03-26T16:44:59.901Z,13.70
2023-03-26T16:47:44.825Z,13.55
2023-03-26T16:50:35.827Z,13.47
2023-03-26T16:53:29.633Z,13.42
2023-03-26T16:56:12.727Z,13.37
2023-03-26T16:58:40.995Z,13.37
2023-03-26T17:01:27.832Z,13.32
2023-03-26T17:04:17.258Z,13.34
2023-03-26T17:07:14.069Z,13.21
2023-03-26T17:10:08.664Z,13.30
2023-03-26T17:12:53.331Z,13.33
2023-03-26T17:15:46.203Z,13.46
2023-03-26T17:18:14.235Z,13.40
2023-03-26T17:21:12.320Z,13.26
2023-03-26T17:23:55.385Z,13.19
2023-03-26T17:26:47.043Z,13.14
2023-03-26T17:29:27.437Z,13.09
2023-03-26T17:32:08.974Z,13.00
2023-03-26T17:34:49.265Z,12.98
2023-03-26T17:37:18.977Z,12.97
2023-03-26T17:39:47.317Z,12.92
2023-03-26T17:42:27.520Z,12.92
2023-03-26T17:44:57.748Z,12.95
2023-03-26T17:47:33.416Z,12.82
2023-03-26T17:50:13.539Z,12.97
2023-03-26T17:53:07.466Z,12.89
2023-03-26T17:55:39.352Z,12.92
2023-03-26T17:58:20.508Z,12.90
2023-03-26T18:01:02.652Z,12.93
2023-03-26T18:03:40.702Z,12.94
2023-03-26T18:06:18.330Z,12.89
2023-03-26T18:09:05.978Z,12.87
2023-03-26T18:12:11.503Z,13.09
2023-03-26T18:15:21.472Z,13.07
2023-03-26T18:18:02.907Z,13.03
2023-03-26T18:20:32.493Z,12.93
2023-03-26T18:23:10.011Z,12.80
2023-03-26T18:25:41.092Z,12.74
2023-03-26T18:28:14.271Z,12.63
2023-03-26T18:30:48.599Z,12.39
2023-03-26T18:33:17.175Z,12.62
2023-03-26T18:35:52.108Z,12.38
2023-03-26T18:38:34.986Z,12.55
2023-03-26T18:41:08.535Z,12.50
2023-03-26T18:43:44.442Z,12.45
2023-03-26T18:46:14.971Z,12.31
2023-03-26T18:48:44.315Z,12.43
2023-03-26T18:51:13.329Z,12.38
2023-03-26T18:53:50.273Z,12.40
2023-03-26T18:56:27.671Z,12.40
2023-03-26T18:58:58.956Z,12.37
2023-03-26T19:01:33.331Z,12.43
2023-03-26T19:04:05.903Z,12.36
2023-03-26T19:06:40.068Z,12.34
2023-03-26T19:09:30.269Z,12.24
2023-03-26T19:12:15.716Z,12.20
2023-03-26T19:15:09.427Z,12.07
2023-03-26T19:17:44.479Z,12.05
2023-03-26T19:20:37.153Z,11.99
2023-03-26T19:23:09.120Z,12.00
2023-03-26T19:25:44.251Z,12.04
2023-03-26T19:28:29.154Z,12.08
2023-03-26T19:31:06.542Z,12.15
2023-03-26T19:33:39.741Z,12.20
2023-03-26T19:36:19.551Z,12.09
2023-03-26T19:38:53.559Z,11.90
2023-03-26T19:41:31.241Z,12.00
2023-03-26T19:44:02.028Z,11.96
2023-03-26T19:46:34.338Z,11.77
2023-03-26T19:49:46.447Z,11.91
2023-03-26T19:52:41.430Z,11.84
2023-03-26T19:55:21.443Z,11.91
2023-03-26T19:57:49.740Z,11.90
2023-03-26T20:00:19.194Z,11.82
2023-03-26T20:02:48.879Z,11.68
2023-03-26T20:05:26.314Z,11.46
2023-03-26T20:07:58.405Z,11.36
2023-03-26T20:10:27.206Z,11.28
2023-03-26T20:12:55.827Z,11.15
2023-03-26T20:15:26.379Z,11.09
2023-03-26T20:17:55.307Z,11.06
2023-03-26T20:20:27.690Z,10.78
2023-03-26T20:22:56.033Z,10.74
2023-03-26T20:25:30.973Z,10.65
2023-03-26T20:28:02.557Z,10.74
2023-03-26T20:30:37.848Z,10.77
2023-03-26T20:33:12.065Z,10.70
2023-03-26T20:35:42.933Z,10.46
2023-03-26T20:38:12.014Z,10.65
2023-03-26T20:40:40.350Z,10.55
2023-03-26T20:43:12.527Z,10.43
2023-03-26T20:45:41.157Z,10.34
2023-03-26T20:48:10.617Z,10.28
2023-03-26T20:51:01.855Z,10.05
2023-03-26T20:53:30.585Z,10.20
2023-03-26T20:55:58.480Z,10.22
2023-03-26T20:58:31.463Z,10.20
2023-03-26T21:01:02.245Z,10.24
2023-03-26T21:03:30.505Z,10.27
2023-03-26T21:06:06.538Z,10.22
2023-03-26T21:08:35.445Z,10.21
2023-03-26T21:11:05.584Z,10.09
2023-03-26T21:13:40.177Z,10.25
2023-03-26T21:16:11.207Z,10.26
2023-03-26T21:18:39.932Z,10.19
2023-03-26T21:21:37.105Z,10.14
2023-03-26T21:24:15.243Z,10.23
2023-03-26T21:27:26.520Z,10.20
2023-03-26T21:29:58.272Z,10.32
2023-03-26T21:32:26.920Z,10.39
2023-03-26T21:34:59.176Z,10.14
2023-03-26T21:37:28.131Z,10.31
2023-03-26T21:39:56.785Z,10.30
2023-03-26T21:42:29.266Z,10.33
2023-03-26T21:44:57.819Z,10.30
2023-03-26T21:47:26.475Z,10.27
2023-03-26T21:49:55.524Z,10.15
2023-03-26T21:52:24.650Z,10.23
2023-03-26T21:54:53.005Z,10.10
2023-03-26T21:57:55.019Z,10.18
2023-03-26T22:00:42.824Z,10.10
2023-03-26T22:03:33.253Z,10.08
2023-03-26T22:06:09.581Z,10.13
2023-03-26T22:08:40.838Z,10.14
2023-03-26T22:11:11.371Z,10.13
2023-03-26T22:13:39.787Z,10.13
2023-03-26T22:16:10.762Z,10.10
2023-03-26T22:18:39.025Z,9.91
2023-03-26T22:21:07.192Z,10.06
2023-03-26T22:23:36.762Z,10.04
2023-03-26T22:26:06.038Z,9.83
2023-03-26T22:28:34.397Z,9.84
2023-03-26T22:31:08.881Z,9.97
2023-03-26T22:33:40.177Z,9.78
2023-03-26T22:36:22.100Z,9.72
2023-03-26T22:38:54.162Z,9.71
2023-03-26T22:41:22.851Z,9.68
2023-03-26T22:43:54.786Z,9.32
2023-03-26T22:46:23.800Z,9.41
2023-03-26T22:48:51.796Z,9.43
2023-03-26T22:51:19.686Z,9.38
2023-03-26T22:53:47.898Z,9.58
2023-03-26T22:56:17.182Z,9.73
2023-03-26T22:58:45.113Z,9.76
2023-03-26T23:01:17.985Z,9.48
2023-03-26T23:03:46.696Z,9.68
2023-03-26T23:06:16.207Z,9.67
2023-03-26T23:08:44.776Z,9.73
2023-03-26T23:11:15.165Z,9.66
2023-03-26T23:13:45.447Z,9.46
2023-03-26T23:16:14.339Z,9.43
2023-03-26T23:18:43.126Z,9.39
2023-03-26T23:21:19.707Z,9.49
2023-03-26T23:23:49.836Z,9.23
2023-03-26T23:26:18.170Z,9.62
2023-03-26T23:28:46.203Z,9.55
2023-03-26T23:31:14.377Z,9.42
2023-03-26T23:33:51.501Z,9.31
2023-03-26T23:36:23.688Z,9.16
2023-03-26T23:38:53.094Z,9.15
2023-03-26T23:41:23.440Z,8.92
2023-03-26T23:43:55.597Z,8.90
2023-03-26T23:46:25.803Z,8.81
2023-03-26T23:48:55.109Z,8.88
2023-03-26T23:51:24.196Z,8.70
2023-03-26T23:53:52.794Z,8.71
2023-03-26T23:56:21.197Z,8.63
2023-03-26T23:58:49.211Z,8.71
